Time;durP1;ratioP1;P1;durP2;ratioP2;P2;SDS_P1;SDS_P2;PMS_P1;PMS_P2;Temp;Humidity;BMP_temperature;BMP_pressure;BME280_temperature;BME280_humidity;BME280_pressure;Samples;Min_cycle;Max_cycle;Signal;HPM_P1;HPM_P2
2022/12/11 07:11:09;;;;;;;;;;;;;;;;;;2317036;54;2444;-72
2022/12/11 07:13:43;;;;;;;;;;;;;;;;;;2194641;59;1986;-72
2022/12/11 07:16:17;;;;;;;;;;;;;;;;;;2195477;59;1559;-71
2022/12/11 07:18:51;;;;;;;;;;;;;;;;;;2195716;59;2044;-71
2022/12/11 09:36:19;;;;;;;;;;;;;;;;;;2318556;59;2438;-73
2022/12/11 09:38:52;;;;;;;;;;;;;;;;;;2193151;59;29638;-72
2022/12/11 09:41:34;;;;;;;;;;;;;;;;;;2192408;59;27774;-73
2022/12/11 09:55:16;;;;;;;;;;;;;;;;;;2193231;59;12824;-72
2022/12/11 09:57:53;;;;;;;;;;;;;;;;;;2191150;59;11775;-72
2022/12/11 10:00:29;;;;;;;;;;;;;;;;;;2191030;59;19274;-72
2022/12/11 10:03:21;;;;;;;;;;;;;;;;;;2191780;59;12569;-72
2022/12/11 10:05:57;;;;;;;;;;;;;;;;;;2194780;54;20618;-73
2022/12/11 10:08:33;;;;;;;;;;;;;;;;;;2189542;59;31757;-73
2022/12/11 10:11:17;;;;;;;;;;;;;;;;;;2189977;67;19397;-72
2022/12/11 10:13:55;;;;;;;;;;;;;;;;;;2187210;59;12395;-72
2022/12/11 10:16:35;;;;;;;;;;;;;;;;;;2191632;59;12257;-72
2022/12/11 10:19:14;;;;;;;;;;;;;;;;;;2192443;59;14409;-72
2022/12/11 10:21:48;;;;;;;;;;;;;;;;;;2190994;59;17050;-71
2022/12/11 10:24:24;;;;;;;;;;;;;;;;;;2189364;59;12035;-71
2022/12/11 10:27:01;;;;;;;;;;;;;;;;;;2190567;59;19020;-72
2022/12/11 10:29:35;;;;;;;;;;;;;;;;;;2192159;59;16509;-71
2022/12/11 10:32:14;;;;;;;;;;;;;;;;;;2192499;59;12553;-73
2022/12/11 10:34:49;;;;;;;;;;;;;;;;;;2192613;59;12597;-72
2022/12/11 10:37:23;;;;;;;;;;;;;;;;;;2193019;59;12566;-72
2022/12/11 10:39:56;;;;;;;;;;;;;;;;;;2190798;59;11942;-71
2022/12/11 10:42:32;;;;;;;;;;;;;;;;;;2192260;67;17508;-71
2022/12/11 10:45:06;;;;;;;;;;;;;;;;;;2193149;59;12441;-71
2022/12/11 10:47:39;;;;;;;;;;;;;;;;;;2192634;59;12296;-72
2022/12/11 10:50:23;;;;;;;;;;;;;;;;;;2193496;59;12223;-71
2022/12/11 10:52:57;;;;;;;;;;;;;;;;;;2190643;59;15363;-72
2022/12/11 10:55:32;;;;;;;;;;;;;;;;;;2190035;59;13523;-72
2022/12/11 10:58:08;;;;;;;;;;;;;;;;;;2191741;59;12299;-72
2022/12/11 11:00:42;;;;;;;;;;;;;;;;;;2191764;59;16112;-71
2022/12/11 11:03:22;;;;;;;;;;;;;;;;;;2192094;59;12554;-72
2022/12/11 11:06:03;;;;;;;;;;;;;;;;;;2192981;59;12639;-72
2022/12/11 11:08:41;;;;;;;;;;;;;;;;;;2194800;59;1833;-72
2022/12/11 11:11:22;;;;;;;;;;;;;;;;;;2193607;59;1732;-72
2022/12/11 11:14:09;;;;;;;;;;;;;;;;;;2191597;59;2054;-72
2022/12/11 11:16:43;;;;;;;;;;;;;;;;;;2193987;59;1465;-72
2022/12/11 11:19:20;;;;;;;;;;;;;;;;;;2195447;59;1860;-71
2022/12/11 11:21:54;;;;;;;;;;;;;;;;;;2195458;59;1730;-71
2022/12/11 11:24:31;;;;;;;;;;;;;;;;;;2194833;59;1686;-71
2022/12/11 11:27:05;;;;;;;;;;;;;;;;;;2194530;59;1687;-72
2022/12/11 11:29:40;;;;;;;;;;;;;;;;;;2194225;59;2059;-71
2022/12/11 11:32:19;;;;;;;;;;;;;;;;;;2195027;67;1296;-71
2022/12/11 11:34:52;;;;;;;;;;;;;;;;;;2191868;59;1953;-71
2022/12/11 11:37:32;;;;;;;;;;;;;;;;;;2195163;59;1183;-71
2022/12/11 11:40:08;;;;;;;;;;;;;;;;;;2194545;59;1876;-71
2022/12/11 11:42:45;;;;;;;;;;;;;;;;;;2194197;59;1801;-71
2022/12/11 11:45:24;;;;;;;;;;;;;;;;;;2194866;59;2117;-71
2022/12/11 11:48:01;;;;;;;;;;;;;;;;;;2195685;59;1384;-71
2022/12/11 11:50:37;;;;;;;;;;;;;;;;;;2195491;60;1093;-71
2022/12/11 11:53:13;;;;;;;;;;;;;;;;;;2195246;59;1162;-71
2022/12/11 11:55:50;;;;;;;;;;;;;;;;;;2194504;67;1914;-72
2022/12/11 11:58:27;;;;;;;;;;;;;;;;;;2196423;67;1153;-71
2022/12/11 12:01:03;;;;;;;;;;;;;;;;;;2195280;59;982;-71
2022/12/11 12:03:36;;;;;;;;;;;;;;;;;;2195539;67;1210;-71
2022/12/11 12:06:12;;;;;;;;;;;;;;;;;;2195426;59;1176;-71
2022/12/11 12:08:48;;;;;;;;;;;;;;;;;;2191641;59;1758;-72
2022/12/11 12:11:27;;;;;;;;;;;;;;;;;;2195026;59;1992;-72
2022/12/11 12:14:06;;;;;;;;;;;;;;;;;;2194539;59;2047;-71
2022/12/11 12:16:46;;;;;;;;;;;;;;;;;;2194532;59;1952;-72
2022/12/11 12:19:28;;;;;;;;;;;;;;;;;;2195645;67;1094;-71
2022/12/11 12:22:06;;;;;;;;;;;;;;;;;;2195245;67;1137;-72
2022/12/11 12:24:42;;;;;;;;;;;;;;;;;;2195691;67;1112;-72
2022/12/11 12:27:20;;;;;;;;;;;;;;;;;;2194925;59;1786;-72
2022/12/11 12:29:58;;;;;;;;;;;;;;;;;;2194701;59;1800;-72
2022/12/11 12:32:42;;;;;;;;;;;;;;;;;;2194102;59;1860;-73
2022/12/11 12:35:22;;;;;;;;;;;;;;;;;;2192086;59;1992;-73
2022/12/11 12:37:59;;;;;;;;;;;;;;;;;;2194969;59;1709;-73
2022/12/11 12:40:33;;;;;;;;;;;;;;;;;;2196085;59;1818;-73
2022/12/11 12:43:14;;;;;;;;;;;;;;;;;;2195087;59;1780;-73
2022/12/11 12:45:53;;;;;;;;;;;;;;;;;;2195363;67;1282;-73
2022/12/11 12:48:29;;;;;;;;;;;;;;;;;;2195047;59;1809;-73
2022/12/11 12:51:02;;;;;;;;;;;;;;;;;;2190245;59;2083;-73
2022/12/11 12:53:38;;;;;;;;;;;;;;;;;;2194646;59;1794;-73
2022/12/11 12:56:13;;;;;;;;;;;;;;;;;;2194180;59;1993;-73
2022/12/11 12:58:47;;;;;;;;;;;;;;;;;;2193846;59;1840;-73
2022/12/11 13:01:21;;;;;;;;;;;;;;;;;;2193654;59;1850;-73
2022/12/11 13:04:00;;;;;;;;;;;;;;;;;;2193972;59;1628;-73
2022/12/11 13:06:38;;;;;;;;;;;;;;;;;;2194643;59;1958;-74
2022/12/11 13:09:16;;;;;;;;;;;;;;;;;;2189816;59;1821;-73
2022/12/11 13:11:53;;;;;;;;;;;;;;;;;;2192481;59;15913;-73
2022/12/11 13:14:30;;;;;;;;;;;;;;;;;;2191869;59;54098;-73
2022/12/11 13:17:07;;;;;;;;;;;;;;;;;;2185407;59;12232;-73
2022/12/11 13:19:43;;;;;;;;;;;;;;;;;;2191391;59;12230;-74
2022/12/11 13:22:23;;;;;;;;;;;;;;;;;;2191325;59;13640;-73
2022/12/11 13:25:00;;;;;;;;;;;;;;;;;;2191673;59;27736;-74
2022/12/11 13:30:23;;;;;;;;;;;;;;;;;;2192502;59;12741;-74
2022/12/11 13:33:01;;;;;;;;;;;;;;;;;;2189642;59;18135;-75
2022/12/11 13:35:37;;;;;;;;;;;;;;;;;;2191524;59;17532;-73
2022/12/11 13:38:17;;;;;;;;;;;;;;;;;;2193736;59;13586;-73
2022/12/11 13:40:53;;;;;;;;;;;;;;;;;;2194109;59;12629;-73
2022/12/11 13:56:42;;;;;;;;;;;;;;;;;;2192644;59;11746;-74
2022/12/11 13:59:30;;;;;;;;;;;;;;;;;;2193321;59;12679;-73
2022/12/11 14:02:06;;;;;;;;;;;;;;;;;;2193515;59;13376;-73
2022/12/11 14:04:39;;;;;;;;;;;;;;;;;;2197761;59;13505;-74
2022/12/11 14:07:13;;;;;;;;;;;;;;;;;;2196535;59;19040;-74
2022/12/11 14:09:47;;;;;;;;;;;;;;;;;;2197534;59;26954;-73
2022/12/11 14:12:23;;;;;;;;;;;;;;;;;;2197107;59;18840;-74
2022/12/11 14:14:57;;;;;;;;;;;;;;;;;;2193759;59;12452;-74
2022/12/11 14:17:31;;;;;;;;;;;;;;;;;;2198193;59;13373;-74
2022/12/11 14:20:07;;;;;;;;;;;;;;;;;;2196214;59;12376;-74
2022/12/11 14:22:40;;;;;;;;;;;;;;;;;;2198162;59;13454;-74
2022/12/11 14:25:22;;;;;;;;;;;;;;;;;;2196129;59;13029;-74
2022/12/11 14:28:00;;;;;;;;;;;;;;;;;;2197358;59;18625;-74
2022/12/11 14:30:34;;;;;;;;;;;;;;;;;;2197134;64;13384;-74
2022/12/11 14:33:08;;;;;;;;;;;;;;;;;;2197130;59;12656;-74
2022/12/11 14:35:43;;;;;;;;;;;;;;;;;;2197732;59;13505;-74
2022/12/11 14:38:18;;;;;;;;;;;;;;;;;;2196289;59;31829;-74
2022/12/11 14:40:53;;;;;;;;;;;;;;;;;;2196504;59;12060;-74
2022/12/11 14:43:30;;;;;;;;;;;;;;;;;;2197171;59;19633;-74
2022/12/11 14:46:07;;;;;;;;;;;;;;;;;;2195154;59;13374;-74
2022/12/11 14:48:44;;;;;;;;;;;;;;;;;;2197435;59;12625;-74
2022/12/11 14:51:19;;;;;;;;;;;;;;;;;;2196010;59;16499;-74
2022/12/11 14:53:54;;;;;;;;;;;;;;;;;;2197547;59;12114;-74
2022/12/11 14:56:29;;;;;;;;;;;;;;;;;;2197336;59;13980;-74
2022/12/11 14:59:07;;;;;;;;;;;;;;;;;;2197020;59;20388;-74
2022/12/11 15:01:41;;;;;;;;;;;;;;;;;;2197292;59;12608;-74
2022/12/11 15:04:23;;;;;;;;;;;;;;;;;;2192640;64;11829;-74
2022/12/11 15:06:57;;;;;;;;;;;;;;;;;;2196657;64;12927;-74
2022/12/11 15:09:31;;;;;;;;;;;;;;;;;;2197406;59;11930;-74
2022/12/11 15:12:10;;;;;;;;;;;;;;;;;;2195627;59;17122;-74
2022/12/11 15:14:49;;;;;;;;;;;;;;;;;;2197426;59;12583;-74
2022/12/11 15:17:24;;;;;;;;;;;;;;;;;;2195581;59;13713;-74
2022/12/11 15:19:58;;;;;;;;;;;;;;;;;;2195879;59;12927;-73
2022/12/11 15:22:33;;;;;;;;;;;;;;;;;;2197110;59;13011;-73
2022/12/11 15:25:06;;;;;;;;;;;;;;;;;;2195517;59;12763;-73
2022/12/11 15:27:41;;;;;;;;;;;;;;;;;;2198135;67;14839;-73
2022/12/11 15:30:29;;;;;;;;;;;;;;;;;;2194928;59;12030;-73
2022/12/11 15:33:06;;;;;;;;;;;;;;;;;;2195992;59;28945;-73
2022/12/11 15:35:40;;;;;;;;;;;;;;;;;;2196645;59;14069;-73
2022/12/11 15:38:27;;;;;;;;;;;;;;;;;;2194940;59;29218;-73
2022/12/11 15:41:00;;;;;;;;;;;;;;;;;;2192572;59;12729;-73
2022/12/11 15:43:36;;;;;;;;;;;;;;;;;;2198508;59;11754;-73
2022/12/11 15:46:12;;;;;;;;;;;;;;;;;;2197715;59;12476;-73
2022/12/11 15:48:45;;;;;;;;;;;;;;;;;;2197002;59;14522;-73
2022/12/11 15:51:18;;;;;;;;;;;;;;;;;;2195441;59;12487;-73
2022/12/11 15:53:51;;;;;;;;;;;;;;;;;;2196509;64;12024;-73
2022/12/11 15:56:24;;;;;;;;;;;;;;;;;;2197333;59;12289;-73
2022/12/11 15:58:59;;;;;;;;;;;;;;;;;;2197326;59;15685;-74
2022/12/11 16:01:36;;;;;;;;;;;;;;;;;;2198136;59;12362;-73
2022/12/11 16:04:09;;;;;;;;;;;;;;;;;;2197192;59;11979;-74
2022/12/11 16:06:45;;;;;;;;;;;;;;;;;;2196543;59;14827;-73
2022/12/11 16:09:18;;;;;;;;;;;;;;;;;;2194789;59;11740;-74
2022/12/11 16:11:51;;;;;;;;;;;;;;;;;;2195132;59;15967;-73
2022/12/11 16:14:24;;;;;;;;;;;;;;;;;;2194299;59;13426;-74
2022/12/11 16:17:00;;;;;;;;;;;;;;;;;;2195043;59;18796;-73
2022/12/11 16:19:33;;;;;;;;;;;;;;;;;;2197015;59;12956;-74
2022/12/11 16:22:07;;;;;;;;;;;;;;;;;;2194463;59;12407;-73
2022/12/11 16:24:41;;;;;;;;;;;;;;;;;;2196376;59;13120;-73
2022/12/11 16:27:14;;;;;;;;;;;;;;;;;;2195905;59;26204;-73
2022/12/11 16:29:47;;;;;;;;;;;;;;;;;;2197810;59;12778;-73
2022/12/11 16:32:23;;;;;;;;;;;;;;;;;;2196972;59;19627;-73
2022/12/11 16:34:56;;;;;;;;;;;;;;;;;;2197027;59;14500;-73
2022/12/11 16:37:29;;;;;;;;;;;;;;;;;;2197328;59;12144;-73
2022/12/11 16:40:02;;;;;;;;;;;;;;;;;;2197659;59;13111;-73
2022/12/11 16:42:36;;;;;;;;;;;;;;;;;;2196069;59;12482;-73
2022/12/11 16:45:10;;;;;;;;;;;;;;;;;;2195711;59;23017;-74
2022/12/11 16:47:46;;;;;;;;;;;;;;;;;;2196527;59;11772;-73
2022/12/11 16:50:19;;;;;;;;;;;;;;;;;;2196637;59;12665;-73
2022/12/11 16:52:52;;;;;;;;;;;;;;;;;;2197884;59;12827;-74
2022/12/11 16:55:25;;;;;;;;;;;;;;;;;;2194181;59;13908;-74
2022/12/11 16:57:59;;;;;;;;;;;;;;;;;;2196378;59;12841;-73
2022/12/11 17:00:32;;;;;;;;;;;;;;;;;;2197265;67;14933;-74
2022/12/11 17:03:08;;;;;;;;;;;;;;;;;;2197052;59;34200;-73
2022/12/11 17:05:41;;;;;;;;;;;;;;;;;;2198296;64;11752;-73
2022/12/11 17:08:14;;;;;;;;;;;;;;;;;;2196893;59;15706;-73
2022/12/11 17:10:48;;;;;;;;;;;;;;;;;;2197927;59;14271;-73
2022/12/11 17:13:21;;;;;;;;;;;;;;;;;;2196143;59;13126;-73
2022/12/11 17:15:54;;;;;;;;;;;;;;;;;;2197251;59;12697;-73
2022/12/11 17:18:30;;;;;;;;;;;;;;;;;;2197729;59;12050;-73
2022/12/11 17:21:07;;;;;;;;;;;;;;;;;;2196124;59;11878;-73
2022/12/11 17:23:40;;;;;;;;;;;;;;;;;;2195906;59;11525;-73
2022/12/11 17:26:15;;;;;;;;;;;;;;;;;;2195700;59;12894;-73
2022/12/11 17:28:49;;;;;;;;;;;;;;;;;;2193270;59;19011;-73
2022/12/11 17:31:22;;;;;;;;;;;;;;;;;;2196599;59;16878;-73
2022/12/11 17:33:59;;;;;;;;;;;;;;;;;;2196644;59;12352;-73
2022/12/11 17:36:33;;;;;;;;;;;;;;;;;;2197652;59;12640;-73
2022/12/11 17:39:06;;;;;;;;;;;;;;;;;;2196562;64;12732;-73
2022/12/11 17:41:39;;;;;;;;;;;;;;;;;;2197263;59;12103;-73
2022/12/11 17:44:12;;;;;;;;;;;;;;;;;;2196499;59;14001;-73
2022/12/11 17:46:46;;;;;;;;;;;;;;;;;;2196832;59;14314;-73
2022/12/11 17:49:22;;;;;;;;;;;;;;;;;;2196787;59;11883;-73
2022/12/11 17:51:55;;;;;;;;;;;;;;;;;;2197090;59;12430;-73
2022/12/11 17:54:28;;;;;;;;;;;;;;;;;;2197433;59;12774;-73
2022/12/11 17:57:01;;;;;;;;;;;;;;;;;;2196108;59;11963;-73
2022/12/11 17:59:34;;;;;;;;;;;;;;;;;;2198794;59;12329;-73
2022/12/11 18:02:08;;;;;;;;;;;;;;;;;;2198040;59;18445;-73
2022/12/11 18:04:44;;;;;;;;;;;;;;;;;;2197780;59;12139;-73
2022/12/11 18:07:18;;;;;;;;;;;;;;;;;;2192371;59;13276;-73
2022/12/11 18:09:51;;;;;;;;;;;;;;;;;;2198075;64;11422;-73
2022/12/11 18:12:24;;;;;;;;;;;;;;;;;;2197524;59;12729;-73
2022/12/11 18:15:00;;;;;;;;;;;;;;;;;;2199698;59;12663;-73
2022/12/11 18:17:34;;;;;;;;;;;;;;;;;;2200166;59;18819;-73
2022/12/11 18:20:13;;;;;;;;;;;;;;;;;;2199141;59;11948;-73
2022/12/11 18:22:46;;;;;;;;;;;;;;;;;;2198740;59;12493;-73
2022/12/11 18:25:19;;;;;;;;;;;;;;;;;;2196476;59;12760;-73
2022/12/11 18:27:53;;;;;;;;;;;;;;;;;;2196607;59;12965;-73
2022/12/11 18:30:28;;;;;;;;;;;;;;;;;;2193034;64;14354;-73
2022/12/11 18:33:01;;;;;;;;;;;;;;;;;;2192712;59;15423;-73
2022/12/11 18:35:37;;;;;;;;;;;;;;;;;;2197748;59;26866;-73
2022/12/11 18:38:11;;;;;;;;;;;;;;;;;;2196164;59;12797;-74
2022/12/11 18:40:44;;;;;;;;;;;;;;;;;;2197815;59;12233;-73
2022/12/11 18:43:17;;;;;;;;;;;;;;;;;;2196605;59;12591;-73
2022/12/11 18:45:50;;;;;;;;;;;;;;;;;;2197227;59;14910;-74
2022/12/11 18:48:24;;;;;;;;;;;;;;;;;;2196766;59;11675;-73
2022/12/11 18:51:00;;;;;;;;;;;;;;;;;;2196586;59;19603;-73
2022/12/11 18:53:33;;;;;;;;;;;;;;;;;;2197715;59;12326;-73
2022/12/11 18:56:07;;;;;;;;;;;;;;;;;;2195971;59;12120;-73
2022/12/11 18:58:41;;;;;;;;;;;;;;;;;;2197341;59;24722;-73
2022/12/11 19:01:17;;;;;;;;;;;;;;;;;;2196692;59;13072;-73
2022/12/11 19:03:51;;;;;;;;;;;;;;;;;;2196746;59;19045;-73
2022/12/11 19:06:29;;;;;;;;;;;;;;;;;;2196617;59;15871;-73
2022/12/11 19:09:02;;;;;;;;;;;;;;;;;;2196237;59;13481;-73
2022/12/11 19:11:36;;;;;;;;;;;;;;;;;;2197537;59;12259;-73
2022/12/11 19:14:10;;;;;;;;;;;;;;;;;;2196384;59;25047;-72
2022/12/11 19:16:44;;;;;;;;;;;;;;;;;;2197534;59;12373;-72
2022/12/11 19:19:19;;;;;;;;;;;;;;;;;;2196966;59;18489;-72
2022/12/11 19:21:55;;;;;;;;;;;;;;;;;;2197824;59;13627;-73
2022/12/11 19:24:28;;;;;;;;;;;;;;;;;;2196033;67;12198;-73
2022/12/11 19:27:01;;;;;;;;;;;;;;;;;;2196385;59;24012;-73
2022/12/11 19:29:34;;;;;;;;;;;;;;;;;;2194151;59;12027;-73
2022/12/11 19:32:08;;;;;;;;;;;;;;;;;;2197868;59;13941;-72
2022/12/11 19:34:41;;;;;;;;;;;;;;;;;;2197733;59;13796;-73
2022/12/11 19:37:18;;;;;;;;;;;;;;;;;;2196467;59;30165;-73
2022/12/11 19:39:51;;;;;;;;;;;;;;;;;;2196494;59;12218;-73
2022/12/11 19:42:24;;;;;;;;;;;;;;;;;;2196531;59;12079;-73
2022/12/11 19:44:57;;;;;;;;;;;;;;;;;;2197062;59;14279;-73
2022/12/11 19:47:31;;;;;;;;;;;;;;;;;;2198643;59;12284;-73
2022/12/11 19:50:04;;;;;;;;;;;;;;;;;;2196311;59;18022;-73
2022/12/11 19:52:40;;;;;;;;;;;;;;;;;;2198133;64;13091;-73
2022/12/11 20:05:53;;;;;;;;;;;;;;;;;;2295329;54;1914;-73
2022/12/11 20:08:30;;;;;;;;;;;;;;;;;;2192554;59;12244;-73
2022/12/11 20:11:05;;;;;;;;;;;;;;;;;;2192579;59;13389;-73
2022/12/11 20:13:39;;;;;;;;;;;;;;;;;;2193445;59;13143;-73
2022/12/11 20:16:13;;;;;;;;;;;;;;;;;;2196350;59;12860;-73
2022/12/11 20:18:47;;;;;;;;;;;;;;;;;;2189832;59;19711;-73
2022/12/11 20:21:21;;;;;;;;;;;;;;;;;;2197346;59;16375;-73
2022/12/11 20:23:57;;;;;;;;;;;;;;;;;;2196581;59;12336;-73
2022/12/11 20:26:31;;;;;;;;;;;;;;;;;;2194946;59;12279;-73
2022/12/11 20:29:06;;;;;;;;;;;;;;;;;;2196308;59;12545;-73
2022/12/11 20:31:39;;;;;;;;;;;;;;;;;;2196045;59;12533;-72
2022/12/11 20:34:12;;;;;;;;;;;;;;;;;;2196353;59;13556;-73
2022/12/11 20:36:46;;;;;;;;;;;;;;;;;;2196688;59;19180;-73
2022/12/11 20:39:22;;;;;;;;;;;;;;;;;;2197101;59;11980;-73
2022/12/11 20:41:55;;;;;;;;;;;;;;;;;;2196487;59;12732;-73
2022/12/11 20:44:28;;;;;;;;;;;;;;;;;;2195862;59;12847;-72
2022/12/11 20:47:01;;;;;;;;;;;;;;;;;;2195814;59;12728;-73
2022/12/11 20:49:35;;;;;;;;;;;;;;;;;;2192674;59;17915;-73
2022/12/11 20:52:08;;;;;;;;;;;;;;;;;;2196671;59;17756;-73
2022/12/11 20:54:44;;;;;;;;;;;;;;;;;;2196337;59;13374;-72
2022/12/11 20:57:17;;;;;;;;;;;;;;;;;;2196361;59;12304;-73
2022/12/11 20:59:50;;;;;;;;;;;;;;;;;;2196722;59;12965;-73
2022/12/11 21:02:23;;;;;;;;;;;;;;;;;;2197431;59;12353;-72
2022/12/11 21:04:57;;;;;;;;;;;;;;;;;;2196439;59;18428;-73
2022/12/11 21:07:30;;;;;;;;;;;;;;;;;;2196847;59;12867;-73
2022/12/11 21:10:06;;;;;;;;;;;;;;;;;;2195948;59;15116;-73
2022/12/11 21:12:39;;;;;;;;;;;;;;;;;;2197112;59;12439;-73
2022/12/11 21:15:13;;;;;;;;;;;;;;;;;;2195502;59;12786;-73
2022/12/11 21:17:46;;;;;;;;;;;;;;;;;;2196857;59;12057;-72
2022/12/11 21:20:20;;;;;;;;;;;;;;;;;;2197244;59;13712;-72
2022/12/11 21:22:54;;;;;;;;;;;;;;;;;;2196700;59;12575;-73
2022/12/11 21:25:30;;;;;;;;;;;;;;;;;;2195573;59;12917;-72
2022/12/11 21:28:03;;;;;;;;;;;;;;;;;;2194034;59;12687;-73
2022/12/11 21:30:40;;;;;;;;;;;;;;;;;;2195762;67;34726;-73
2022/12/11 21:33:13;;;;;;;;;;;;;;;;;;2197688;59;26634;-72
2022/12/11 21:35:46;;;;;;;;;;;;;;;;;;2197007;59;14117;-73
2022/12/11 21:38:19;;;;;;;;;;;;;;;;;;2193442;59;12850;-73
2022/12/11 21:40:55;;;;;;;;;;;;;;;;;;2196839;59;12727;-73
2022/12/11 21:43:29;;;;;;;;;;;;;;;;;;2197223;59;12575;-72
2022/12/11 21:46:02;;;;;;;;;;;;;;;;;;2195235;59;14185;-72
2022/12/11 21:48:35;;;;;;;;;;;;;;;;;;2196780;59;12024;-72
2022/12/11 21:51:09;;;;;;;;;;;;;;;;;;2196893;59;12922;-73
2022/12/11 21:53:42;;;;;;;;;;;;;;;;;;2197034;67;19149;-73
2022/12/11 21:56:19;;;;;;;;;;;;;;;;;;2195798;59;12405;-73
2022/12/11 21:58:53;;;;;;;;;;;;;;;;;;2197038;67;16270;-73
2022/12/11 22:01:27;;;;;;;;;;;;;;;;;;2196968;59;12507;-73
2022/12/11 22:04:01;;;;;;;;;;;;;;;;;;2196817;59;12376;-73
2022/12/11 22:06:34;;;;;;;;;;;;;;;;;;2194387;59;24709;-74
2022/12/11 22:09:07;;;;;;;;;;;;;;;;;;2196583;64;12585;-73
2022/12/11 22:11:44;;;;;;;;;;;;;;;;;;2191292;59;12726;-73
2022/12/11 22:14:18;;;;;;;;;;;;;;;;;;2198991;59;1706;-73
2022/12/11 22:16:51;;;;;;;;;;;;;;;;;;2200699;59;1274;-73
2022/12/11 22:19:24;;;;;;;;;;;;;;;;;;2199221;59;1987;-73
2022/12/11 22:21:57;;;;;;;;;;;;;;;;;;2199194;59;1795;-73
2022/12/11 22:24:31;;;;;;;;;;;;;;;;;;2200191;67;1091;-73
2022/12/11 22:27:07;;;;;;;;;;;;;;;;;;2200003;67;1270;-73
2022/12/11 22:29:40;;;;;;;;;;;;;;;;;;2201480;59;1444;-73
2022/12/11 22:32:13;;;;;;;;;;;;;;;;;;2200716;67;1217;-73
2022/12/11 22:34:47;;;;;;;;;;;;;;;;;;2196211;59;2114;-73
2022/12/11 22:37:23;;;;;;;;;;;;;;;;;;2199063;59;1787;-73
2022/12/11 22:39:56;;;;;;;;;;;;;;;;;;2200057;67;1941;-73
2022/12/11 22:42:32;;;;;;;;;;;;;;;;;;2199900;67;1090;-73
2022/12/11 22:45:05;;;;;;;;;;;;;;;;;;2199888;59;1767;-73
2022/12/11 22:47:38;;;;;;;;;;;;;;;;;;2200709;59;1547;-73
2022/12/11 22:50:12;;;;;;;;;;;;;;;;;;2198762;59;1988;-73
2022/12/11 22:52:46;;;;;;;;;;;;;;;;;;2196900;67;1097;-73
2022/12/11 22:55:19;;;;;;;;;;;;;;;;;;2199717;67;1227;-73
2022/12/11 22:57:55;;;;;;;;;;;;;;;;;;2196635;67;1924;-73
2022/12/11 23:00:28;;;;;;;;;;;;;;;;;;2200244;59;2101;-73
2022/12/11 23:03:01;;;;;;;;;;;;;;;;;;2200370;59;2858;-73
2022/12/11 23:05:34;;;;;;;;;;;;;;;;;;2199760;59;1271;-73
2022/12/11 23:08:07;;;;;;;;;;;;;;;;;;2199303;67;1130;-73
2022/12/11 23:10:41;;;;;;;;;;;;;;;;;;2199451;67;1120;-73
2022/12/11 23:13:17;;;;;;;;;;;;;;;;;;2199276;59;1521;-73
2022/12/11 23:15:50;;;;;;;;;;;;;;;;;;2196537;59;1280;-73
2022/12/11 23:18:23;;;;;;;;;;;;;;;;;;2199718;59;1933;-73
2022/12/11 23:20:56;;;;;;;;;;;;;;;;;;2200724;59;1112;-73
2022/12/11 23:23:29;;;;;;;;;;;;;;;;;;2200045;67;1006;-73
2022/12/11 23:26:03;;;;;;;;;;;;;;;;;;2199565;67;1149;-73
2022/12/11 23:28:41;;;;;;;;;;;;;;;;;;2200520;59;1376;-73
2022/12/11 23:31:14;;;;;;;;;;;;;;;;;;2199736;59;1072;-73
2022/12/11 23:33:48;;;;;;;;;;;;;;;;;;2200430;59;1196;-73
2022/12/11 23:36:21;;;;;;;;;;;;;;;;;;2199675;59;2019;-73
2022/12/11 23:38:54;;;;;;;;;;;;;;;;;;2200813;59;1941;-73
2022/12/11 23:41:27;;;;;;;;;;;;;;;;;;2199606;59;1199;-73
2022/12/11 23:44:03;;;;;;;;;;;;;;;;;;2200016;67;1133;-73
2022/12/11 23:46:36;;;;;;;;;;;;;;;;;;2200470;59;1207;-73
2022/12/11 23:49:10;;;;;;;;;;;;;;;;;;2199222;59;1741;-73
2022/12/11 23:51:43;;;;;;;;;;;;;;;;;;2200557;67;1106;-73
2022/12/11 23:54:16;;;;;;;;;;;;;;;;;;2199742;67;1174;-73
2022/12/11 23:56:49;;;;;;;;;;;;;;;;;;2200389;59;1225;-73
2022/12/11 23:59:25;;;;;;;;;;;;;;;;;;2199956;59;1929;-73
